Time;durP1;ratioP1;P1;durP2;ratioP2;P2;SDS_P1;SDS_P2;PMS_P1;PMS_P2;Temp;Humidity;BMP_temperature;BMP_pressure;BME280_temperature;BME280_humidity;BME280_pressure;Samples;Min_cycle;Max_cycle;Signal;HPM_P1;HPM_P2
2022/12/27 00:01:45;;;;;;;1.65;1.40;;;8.10;61.80;;;;;;5033742;28;20048;-83
2022/12/27 00:04:11;;;;;;;1.48;1.38;;;8.10;61.80;;;;;;5034856;28;20076;-81
2022/12/27 00:06:38;;;;;;;1.45;1.38;;;8.00;61.90;;;;;;5035836;28;20156;-83
2022/12/27 00:09:04;;;;;;;1.50;1.40;;;8.10;62.00;;;;;;5022359;28;20033;-84
2022/12/27 00:11:31;;;;;;;2.50;2.10;;;8.00;61.90;;;;;;5033572;28;20040;-87
2022/12/27 00:14:02;;;;;;;2.25;1.83;;;8.00;62.00;;;;;;5035946;28;20029;-84
2022/12/27 00:16:29;;;;;;;2.35;1.55;;;8.00;62.00;;;;;;5053495;28;20038;-85
2022/12/27 00:18:55;;;;;;;3.45;1.58;;;8.00;61.80;;;;;;5055995;28;20025;-79
2022/12/27 00:21:22;;;;;;;1.73;1.63;;;8.00;61.70;;;;;;5043224;28;20049;-85
2022/12/27 00:23:51;;;;;;;1.48;1.38;;;8.00;61.70;;;;;;5037010;28;20033;-86
2022/12/27 00:26:25;;;;;;;2.35;1.30;;;8.00;61.80;;;;;;5033153;28;20048;-82
2022/12/27 00:28:51;;;;;;;1.67;1.55;;;7.90;61.60;;;;;;5021777;28;20491;-86
2022/12/27 00:31:20;;;;;;;2.42;1.40;;;7.90;61.50;;;;;;5030645;28;20037;-83
2022/12/27 00:33:48;;;;;;;2.30;1.77;;;7.90;61.70;;;;;;5008470;28;20029;-88
2022/12/27 00:36:18;;;;;;;1.60;1.50;;;7.90;61.60;;;;;;5037181;28;20110;-91
2022/12/27 00:38:45;;;;;;;1.90;1.80;;;7.90;61.50;;;;;;5036180;28;20044;-90
2022/12/27 00:41:11;;;;;;;1.80;1.70;;;7.90;61.50;;;;;;5036297;28;20029;-90
2022/12/27 00:43:37;;;;;;;1.60;1.50;;;7.90;61.40;;;;;;5003017;28;20033;-84
2022/12/27 00:46:04;;;;;;;1.70;1.60;;;7.90;61.40;;;;;;5036269;28;20028;-89
2022/12/27 00:48:30;;;;;;;1.58;1.48;;;7.90;61.30;;;;;;5036018;28;20033;-88
2022/12/27 00:51:06;;;;;;;3.33;1.60;;;7.90;61.20;;;;;;5037224;28;20030;-82
2022/12/27 00:53:32;;;;;;;;;;;7.80;61.20;;;;;;5047810;28;20460;-86
2022/12/27 00:55:58;;;;;;;1.90;1.80;;;7.80;61.10;;;;;;5058705;28;19915;-77
2022/12/27 00:58:25;;;;;;;1.83;1.73;;;7.80;61.10;;;;;;5061936;28;20045;-82
2022/12/27 01:00:51;;;;;;;2.63;2.17;;;7.80;61.30;;;;;;5043289;28;20041;-87
2022/12/27 01:03:19;;;;;;;1.90;1.80;;;7.80;61.40;;;;;;5036780;28;21000;-84
2022/12/27 01:05:45;;;;;;;1.95;1.85;;;7.80;61.50;;;;;;5034104;28;20091;-83
2022/12/27 01:08:11;;;;;;;1.52;1.42;;;7.80;61.50;;;;;;5034594;28;20041;-88
2022/12/27 01:10:39;;;;;;;2.72;2.03;;;7.80;61.60;;;;;;5039439;28;20371;-83
2022/12/27 01:13:06;;;;;;;1.80;1.70;;;7.70;61.70;;;;;;5036672;28;20040;-88
2022/12/27 01:15:32;;;;;;;2.33;2.10;;;7.80;61.70;;;;;;5038352;28;20530;-88
2022/12/27 01:17:58;;;;;;;3.08;2.63;;;7.70;61.70;;;;;;5042387;28;20057;-84
2022/12/27 01:20:24;;;;;;;2.90;2.60;;;7.70;61.70;;;;;;5039773;28;20037;-88
2022/12/27 01:22:52;;;;;;;3.40;3.08;;;7.70;61.70;;;;;;5028865;28;20041;-87
2022/12/27 01:25:17;;;;;;;3.63;3.33;;;7.70;61.70;;;;;;5037496;28;20048;-84
2022/12/27 01:27:43;;;;;;;4.47;3.83;;;7.80;61.80;;;;;;5038382;28;20033;-89
2022/12/27 01:30:10;;;;;;;3.92;3.53;;;7.70;61.70;;;;;;5038579;28;20046;-85
2022/12/27 01:32:36;;;;;;;4.07;3.40;;;7.80;61.90;;;;;;5039141;28;20037;-89
2022/12/27 01:35:02;;;;;;;4.70;3.60;;;7.70;61.80;;;;;;5038751;28;20094;-86
2022/12/27 01:37:28;;;;;;;4.97;3.67;;;7.70;61.70;;;;;;5047125;28;20565;-87
2022/12/27 01:39:55;;;;;;;4.18;3.75;;;7.70;61.70;;;;;;5038696;28;20033;-92
2022/12/27 01:45:23;;;;;;;4.15;3.70;;;7.70;61.70;;;;;;5039645;28;20102;-91
2022/12/27 01:48:18;;;;;;;5.30;4.00;;;7.70;61.90;;;;;;5053197;28;20029;-93
2022/12/27 01:50:50;;;;;;;4.97;3.67;;;7.70;62.00;;;;;;5039735;28;20839;-91
2022/12/27 01:53:23;;;;;;;4.55;3.80;;;7.70;62.10;;;;;;5038332;28;20302;-85
2022/12/27 01:56:00;;;;;;;4.03;3.63;;;7.70;62.10;;;;;;5052659;28;20065;-84
2022/12/27 01:58:46;;;;;;;4.38;3.53;;;7.70;61.90;;;;;;5036098;28;20049;-83
2022/12/27 02:01:13;;;;;;;;;;;7.70;61.80;;;;;;5036670;28;20467;-83
2022/12/27 02:04:13;;;;;;;3.50;3.20;;;7.70;61.90;;;;;;5037708;28;20135;-84
2022/12/27 02:06:40;;;;;;;4.22;3.45;;;7.60;61.80;;;;;;5015042;28;20038;-85
2022/12/27 02:09:35;;;;;;;3.55;3.08;;;7.60;61.70;;;;;;4983855;28;20041;-84
2022/12/27 02:12:04;;;;;;;3.17;2.78;;;7.60;61.60;;;;;;4999603;28;20052;-83
2022/12/27 02:14:32;;;;;;;2.63;2.42;;;7.60;61.60;;;;;;5025974;28;20042;-83
2022/12/27 02:17:00;;;;;;;2.38;2.22;;;7.60;61.60;;;;;;5022214;28;20204;-81
2022/12/27 02:19:41;;;;;;;2.63;2.20;;;7.60;62.00;;;;;;5009991;28;20129;-84
2022/12/27 02:22:26;;;;;;;2.88;2.65;;;7.60;61.90;;;;;;5014458;28;20042;-83
2022/12/27 02:25:04;;;;;;;2.50;2.30;;;7.60;61.70;;;;;;4982522;28;20157;-84
2022/12/27 02:28:11;;;;;;;2.40;1.83;;;7.60;61.70;;;;;;4998156;28;20038;-82
2022/12/27 02:30:37;;;;;;;2.47;2.28;;;7.60;61.70;;;;;;4982129;28;20034;-83
2022/12/27 02:33:15;;;;;;;2.20;2.00;;;7.60;61.70;;;;;;5014664;28;20038;-84
2022/12/27 02:35:50;;;;;;;2.30;2.10;;;7.60;61.90;;;;;;5014609;28;20666;-82
2022/12/27 02:38:29;;;;;;;1.90;1.80;;;7.60;62.10;;;;;;5000675;28;20034;-83
2022/12/27 02:53:02;;;;;;;1.83;1.73;;;7.60;61.90;;;;;;5044743;28;20025;-83
2022/12/27 02:57:07;;;;;;;2.15;2.05;;;7.60;61.90;;;;;;5037378;28;20034;-85
2022/12/27 02:59:09;;;;;;;2.10;1.90;;;7.50;61.90;;;;;;5036793;28;20029;-87
2022/12/27 03:05:38;;;;;;;2.63;1.77;;;7.60;61.80;;;;;;5002529;28;20539;-83
2022/12/27 03:08:16;;;;;;;2.35;1.70;;;7.50;61.50;;;;;;5020522;28;20500;-90
2022/12/27 03:17:08;;;;;;;2.22;2.00;;;7.50;61.60;;;;;;4999797;28;20042;-86
2022/12/27 03:25:29;;;;;;;1.90;1.70;;;7.50;61.90;;;;;;4983452;28;20034;-86
2022/12/27 03:33:50;;;;;;;2.38;1.60;;;7.50;61.90;;;;;;5002523;28;20350;-84
2022/12/27 03:39:30;;;;;;;1.70;1.60;;;7.50;62.20;;;;;;4964699;28;20046;-83
2022/12/27 03:45:05;;;;;;;2.05;1.95;;;7.50;62.30;;;;;;4997354;28;20921;-88
2022/12/27 03:47:37;;;;;;;1.70;1.60;;;7.50;62.40;;;;;;4947467;28;20434;-82
2022/12/27 03:50:09;;;;;;;2.78;1.92;;;7.50;62.50;;;;;;5020841;28;20416;-82
2022/12/27 03:52:53;;;;;;;4.95;2.17;;;7.50;62.60;;;;;;5003611;28;20056;-80
2022/12/27 03:55:20;;;;;;;3.53;2.20;;;7.50;62.60;;;;;;5008891;28;20531;-88
2022/12/27 03:57:46;;;;;;;2.17;2.00;;;7.50;62.60;;;;;;4999899;28;20037;-86
2022/12/27 04:00:12;;;;;;;3.40;2.60;;;7.50;62.70;;;;;;5000738;28;20030;-88
2022/12/27 04:02:41;;;;;;;3.60;2.60;;;7.50;62.70;;;;;;5032746;28;20056;-88
2022/12/27 04:05:08;;;;;;;2.60;2.40;;;7.50;62.70;;;;;;5027600;28;20014;-88
2022/12/27 04:07:34;;;;;;;2.60;2.40;;;7.50;63.40;;;;;;5047761;28;20041;-77
2022/12/27 04:34:42;;;;;;;3.60;3.30;;;7.50;62.80;;;;;;5019043;28;20432;-76
2022/12/27 04:37:18;;;;;;;4.55;3.13;;;7.50;62.80;;;;;;5014706;28;20154;-77
2022/12/27 04:54:55;;;;;;;3.67;3.00;;;7.50;62.90;;;;;;5015168;28;20160;-78
2022/12/27 04:56:18;;;;;;;3.05;2.60;;;7.50;63.40;;;;;;5069143;28;20029;-75
2022/12/27 05:02:02;;;;;;;3.35;2.78;;;7.50;63.40;;;;;;5069986;28;20044;-73
2022/12/27 05:04:15;;;;;;;3.70;2.63;;;7.50;63.50;;;;;;5036974;28;20045;-76
2022/12/27 05:06:41;;;;;;;6.25;2.80;;;7.50;63.60;;;;;;5039351;28;20079;-75
2022/12/27 05:14:36;;;;;;;3.22;2.90;;;7.50;64.00;;;;;;5035212;28;20044;-76
2022/12/27 05:17:02;;;;;;;3.10;2.47;;;7.50;63.80;;;;;;5037456;28;20037;-75
2022/12/27 05:19:28;;;;;;;3.10;2.50;;;7.50;63.80;;;;;;5037713;28;20087;-75
2022/12/27 05:27:22;;;;;;;5.18;3.10;;;7.50;63.50;;;;;;5037621;28;20041;-77
2022/12/27 05:29:48;;;;;;;2.90;2.50;;;7.50;63.90;;;;;;5035224;28;20037;-76
2022/12/27 05:32:14;;;;;;;3.35;2.35;;;7.50;63.40;;;;;;5050708;28;20060;-75
2022/12/27 05:34:40;;;;;;;3.78;2.63;;;7.50;63.40;;;;;;5037165;28;20041;-75
2022/12/27 05:37:07;;;;;;;4.45;2.80;;;7.50;63.30;;;;;;5021734;28;20029;-75
2022/12/27 05:39:33;;;;;;;2.45;2.25;;;7.50;63.40;;;;;;5037888;28;20036;-75
2022/12/27 05:41:59;;;;;;;3.63;2.25;;;7.50;63.50;;;;;;5043003;28;20041;-75
2022/12/27 05:44:24;;;;;;;2.60;2.40;;;7.50;63.40;;;;;;5038374;28;20537;-76
2022/12/27 05:46:52;;;;;;;3.05;2.47;;;7.50;63.40;;;;;;5037351;28;20036;-75
2022/12/27 05:49:18;;;;;;;2.63;2.42;;;7.50;63.30;;;;;;5035662;28;20064;-76
2022/12/27 05:51:44;;;;;;;2.78;2.47;;;7.50;63.20;;;;;;5037386;28;20033;-75
2022/12/27 05:54:10;;;;;;;2.85;2.42;;;7.50;63.20;;;;;;5035487;28;20037;-77
2022/12/27 05:56:36;;;;;;;2.97;2.40;;;7.50;63.00;;;;;;5036840;28;20034;-75
2022/12/27 05:59:02;;;;;;;4.30;2.40;;;7.50;63.20;;;;;;5037919;28;20043;-75
2022/12/27 06:01:28;;;;;;;2.80;2.42;;;7.50;63.20;;;;;;5037365;28;20119;-76
2022/12/27 06:03:54;;;;;;;3.45;2.60;;;7.50;63.00;;;;;;5036099;28;20491;-74
2022/12/27 06:06:20;;;;;;;4.38;2.60;;;7.50;63.00;;;;;;5036757;28;20427;-75
2022/12/27 06:08:46;;;;;;;3.03;2.63;;;7.50;63.00;;;;;;5035973;28;20468;-76
2022/12/27 06:11:15;;;;;;;2.45;2.25;;;7.50;63.00;;;;;;5036386;28;20029;-75
2022/12/27 06:13:43;;;;;;;3.00;2.60;;;7.50;63.00;;;;;;5018776;28;20090;-75
2022/12/27 06:16:11;;;;;;;3.70;2.60;;;7.50;63.00;;;;;;5005211;28;20245;-76
2022/12/27 06:18:38;;;;;;;3.75;2.58;;;7.50;63.00;;;;;;5035362;28;20021;-75
2022/12/27 06:21:13;;;;;;;2.85;2.50;;;7.50;63.00;;;;;;5069229;28;20042;-76
2022/12/27 06:23:40;;;;;;;3.15;2.85;;;7.50;62.90;;;;;;5035741;28;20414;-75
2022/12/27 06:26:09;;;;;;;3.33;2.60;;;7.50;62.90;;;;;;5035529;28;20400;-76
2022/12/27 06:28:35;;;;;;;2.65;2.40;;;7.50;62.80;;;;;;5034483;28;20037;-75
2022/12/27 06:31:02;;;;;;;2.70;2.50;;;7.50;62.80;;;;;;5037332;28;20037;-75
2022/12/27 06:33:28;;;;;;;3.30;2.60;;;7.50;62.70;;;;;;5036275;28;20036;-76
2022/12/27 06:35:54;;;;;;;3.60;2.67;;;7.50;62.70;;;;;;5035264;28;20653;-75
2022/12/27 06:38:20;;;;;;;5.00;2.72;;;7.40;62.60;;;;;;5037449;28;20087;-75
2022/12/27 06:40:46;;;;;;;4.00;3.00;;;7.50;62.60;;;;;;5021964;28;20030;-74
2022/12/27 06:43:13;;;;;;;3.67;3.15;;;7.50;62.60;;;;;;5018424;28;20043;-75
2022/12/27 06:45:39;;;;;;;3.53;2.83;;;7.40;62.50;;;;;;5037650;28;20186;-75
2022/12/27 06:48:05;;;;;;;3.28;2.97;;;7.40;62.30;;;;;;5052859;28;20091;-75
2022/12/27 06:50:31;;;;;;;3.08;2.63;;;7.40;62.10;;;;;;5038850;28;20037;-75
2022/12/27 06:52:57;;;;;;;3.42;2.80;;;7.50;62.00;;;;;;5053186;28;20025;-75
2022/12/27 06:55:23;;;;;;;2.70;2.40;;;7.40;62.00;;;;;;5057102;28;20053;-75
2022/12/27 06:57:50;;;;;;;3.00;2.67;;;7.40;62.10;;;;;;5057222;28;20033;-75
2022/12/27 07:00:17;;;;;;;4.03;3.28;;;7.40;62.10;;;;;;5049537;28;20037;-75
2022/12/27 07:02:43;;;;;;;3.97;2.92;;;7.40;62.10;;;;;;5036289;28;20037;-75
2022/12/27 07:05:09;;;;;;;3.42;3.08;;;7.40;62.10;;;;;;5037910;28;20116;-75
2022/12/27 07:07:35;;;;;;;3.05;2.72;;;7.40;62.10;;;;;;5036372;28;20128;-75
2022/12/27 07:10:00;;;;;;;2.85;2.33;;;7.40;62.00;;;;;;5036127;28;20545;-75
2022/12/27 07:12:26;;;;;;;3.63;2.78;;;7.40;61.90;;;;;;5036132;28;20037;-75
2022/12/27 07:14:52;;;;;;;3.10;2.78;;;7.40;61.90;;;;;;5039243;28;20145;-75
2022/12/27 07:17:18;;;;;;;2.95;2.40;;;7.40;62.10;;;;;;5033704;28;20128;-76
2022/12/27 07:19:44;;;;;;;2.58;2.30;;;7.40;62.20;;;;;;5036105;28;20037;-75
2022/12/27 07:22:10;;;;;;;4.00;2.70;;;7.40;62.20;;;;;;5037234;28;20568;-75
2022/12/27 07:24:36;;;;;;;2.83;2.55;;;7.40;62.30;;;;;;5037444;28;20072;-75
2022/12/27 07:27:03;;;;;;;3.47;2.80;;;7.40;62.50;;;;;;5036320;28;20083;-75
2022/12/27 07:29:30;;;;;;;2.88;2.58;;;7.40;62.50;;;;;;5036128;28;20541;-76
2022/12/27 07:31:57;;;;;;;2.92;2.72;;;7.40;62.50;;;;;;5033996;28;20030;-75
2022/12/27 07:34:24;;;;;;;2.70;2.50;;;7.40;62.50;;;;;;5052046;28;20529;-75
2022/12/27 07:36:50;;;;;;;3.53;2.78;;;7.40;62.20;;;;;;5018224;28;20037;-76
2022/12/27 07:39:16;;;;;;;2.55;2.33;;;7.40;62.10;;;;;;5066834;28;21091;-75
2022/12/27 07:41:42;;;;;;;2.67;2.45;;;7.40;62.00;;;;;;5035068;28;20140;-75
2022/12/27 07:44:09;;;;;;;3.28;2.75;;;7.40;62.00;;;;;;5038477;28;20029;-75
2022/12/27 07:46:35;;;;;;;2.80;2.50;;;7.40;62.00;;;;;;5033153;28;20037;-75
2022/12/27 07:49:01;;;;;;;3.90;2.53;;;7.40;62.10;;;;;;5066205;28;20108;-76
2022/12/27 07:51:27;;;;;;;2.90;2.60;;;7.40;62.20;;;;;;5034186;28;20175;-76
2022/12/27 07:53:53;;;;;;;4.22;3.15;;;7.50;62.20;;;;;;5036175;28;20522;-75
2022/12/27 07:56:22;;;;;;;2.80;2.60;;;7.40;62.30;;;;;;5035340;28;20072;-76
2022/12/27 07:58:49;;;;;;;3.08;2.78;;;7.40;62.30;;;;;;5035489;28;20033;-75
2022/12/27 08:01:17;;;;;;;2.92;2.63;;;7.40;62.30;;;;;;5049910;28;20072;-76
2022/12/27 08:03:44;;;;;;;3.20;2.88;;;7.40;62.30;;;;;;5021721;28;20396;-77
2022/12/27 08:06:39;;;;;;;3.15;2.70;;;7.50;62.30;;;;;;5032858;28;20037;-75
2022/12/27 08:09:06;;;;;;;4.43;3.15;;;7.50;62.40;;;;;;5025133;28;20511;-74
2022/12/27 08:11:32;;;;;;;3.83;3.20;;;7.50;62.30;;;;;;5067857;28;20033;-75
2022/12/27 08:13:58;;;;;;;4.57;3.00;;;7.50;62.40;;;;;;5066330;28;20049;-74
2022/12/27 08:16:25;;;;;;;3.72;3.10;;;7.50;62.50;;;;;;5033441;28;20041;-75
2022/12/27 08:18:52;;;;;;;3.40;3.10;;;7.40;62.40;;;;;;5034604;28;20518;-75
2022/12/27 08:21:18;;;;;;;3.63;3.03;;;7.50;62.30;;;;;;5034835;28;20498;-74
2022/12/27 08:23:44;;;;;;;3.45;3.00;;;7.50;62.30;;;;;;5034009;28;20129;-75
2022/12/27 08:26:10;;;;;;;3.53;3.17;;;7.50;62.10;;;;;;5034396;28;20124;-76
2022/12/27 08:28:36;;;;;;;3.53;3.13;;;7.50;62.00;;;;;;5034448;28;20056;-75
2022/12/27 08:31:08;;;;;;;3.83;3.00;;;7.50;62.00;;;;;;5066585;28;20034;-75
2022/12/27 08:33:34;;;;;;;3.33;2.85;;;7.50;62.10;;;;;;5035338;28;20084;-75
2022/12/27 08:36:05;;;;;;;4.00;3.03;;;7.50;62.30;;;;;;5049297;28;20041;-75
2022/12/27 08:38:31;;;;;;;4.20;3.35;;;7.50;62.20;;;;;;5033462;28;20049;-76
2022/12/27 08:40:57;;;;;;;3.50;3.20;;;7.50;62.20;;;;;;5033645;28;20128;-75
2022/12/27 08:43:23;;;;;;;4.68;3.30;;;7.50;62.20;;;;;;5033070;28;20137;-76
2022/12/27 08:45:49;;;;;;;4.05;3.65;;;7.50;62.10;;;;;;5034674;28;20033;-75
2022/12/27 08:48:16;;;;;;;3.45;2.85;;;7.50;62.20;;;;;;5034493;28;20045;-76
2022/12/27 08:50:42;;;;;;;3.95;3.55;;;7.50;62.10;;;;;;5033657;28;20144;-75
2022/12/27 08:53:09;;;;;;;4.30;3.60;;;7.50;62.10;;;;;;5034595;28;20116;-75
2022/12/27 08:55:35;;;;;;;3.95;3.53;;;7.50;62.00;;;;;;5034436;28;20452;-75
2022/12/27 08:58:05;;;;;;;4.30;3.75;;;7.50;61.90;;;;;;5019881;28;20442;-75
2022/12/27 09:00:32;;;;;;;4.78;4.00;;;7.50;61.90;;;;;;5067153;28;20032;-76
2022/12/27 09:02:58;;;;;;;5.15;4.00;;;7.50;61.90;;;;;;5033783;28;20084;-75
2022/12/27 09:05:26;;;;;;;4.78;4.32;;;7.50;61.80;;;;;;5034850;28;20030;-75
2022/12/27 09:07:52;;;;;;;4.28;3.70;;;7.50;61.80;;;;;;5033030;28;20034;-75
2022/12/27 09:10:19;;;;;;;4.00;3.60;;;7.50;62.20;;;;;;5034188;28;20033;-75
2022/12/27 09:12:45;;;;;;;4.07;3.33;;;7.50;61.80;;;;;;5034558;28;20040;-75
2022/12/27 09:15:11;;;;;;;4.50;3.47;;;7.50;62.00;;;;;;5033634;28;20037;-75
2022/12/27 09:17:37;;;;;;;4.55;3.67;;;7.50;62.10;;;;;;5033168;28;20034;-76
2022/12/27 09:20:04;;;;;;;3.95;3.35;;;7.50;62.20;;;;;;5033991;28;20079;-75
2022/12/27 09:22:30;;;;;;;3.83;3.42;;;7.50;62.20;;;;;;5065603;28;20052;-75
2022/12/27 09:24:56;;;;;;;3.90;3.50;;;7.50;62.30;;;;;;5033375;28;20033;-75
2022/12/27 09:27:22;;;;;;;4.88;3.30;;;7.50;62.40;;;;;;5034638;28;20036;-75
2022/12/27 09:29:48;;;;;;;4.50;3.67;;;7.50;62.40;;;;;;5039961;28;20033;-75
2022/12/27 09:32:14;;;;;;;4.35;3.75;;;7.50;62.50;;;;;;5049790;28;20029;-75
2022/12/27 09:34:40;;;;;;;4.68;3.72;;;7.50;62.50;;;;;;5056155;28;20029;-75
2022/12/27 09:37:06;;;;;;;4.38;3.60;;;7.50;62.60;;;;;;5042424;28;20036;-75
2022/12/27 09:39:32;;;;;;;4.88;4.38;;;7.60;62.70;;;;;;5051278;28;20041;-76
2022/12/27 09:42:02;;;;;;;4.57;3.90;;;7.50;62.50;;;;;;5073575;28;20041;-75
2022/12/27 09:44:59;;;;;;;4.10;3.70;;;7.50;62.40;;;;;;5042335;28;20132;-75
2022/12/27 09:47:40;;;;;;;4.53;3.92;;;7.50;62.30;;;;;;5036512;28;20535;-75
2022/12/27 09:50:14;;;;;;;5.50;4.53;;;7.50;62.20;;;;;;5047717;28;20043;-75
2022/12/27 09:52:58;;;;;;;6.35;4.18;;;7.50;62.10;;;;;;5049105;28;20525;-76
2022/12/27 09:55:38;;;;;;;7.35;4.60;;;7.50;62.10;;;;;;5036751;28;20029;-74
2022/12/27 09:58:29;;;;;;;6.82;4.30;;;7.50;62.20;;;;;;5033984;28;20503;-76
2022/12/27 10:00:55;;;;;;;6.50;4.72;;;7.50;62.20;;;;;;5037434;28;20119;-75
2022/12/27 10:03:25;;;;;;;4.85;4.35;;;7.50;62.20;;;;;;5069522;28;20136;-75
2022/12/27 10:06:27;;;;;;;7.30;4.68;;;7.50;62.20;;;;;;5024885;28;20112;-75
2022/12/27 10:09:13;;;;;;;8.65;5.10;;;7.50;62.20;;;;;;5036076;28;20033;-76
2022/12/27 10:11:48;;;;;;;;;;;7.50;62.20;;;;;;5017818;28;20044;-75
2022/12/27 10:14:26;;;;;;;6.85;5.28;;;7.50;62.10;;;;;;5033757;28;19971;-75
2022/12/27 10:17:13;;;;;;;6.47;4.95;;;7.50;62.10;;;;;;5033730;28;20033;-76
2022/12/27 10:20:08;;;;;;;7.13;4.70;;;7.50;62.00;;;;;;5032877;28;20067;-76
2022/12/27 10:22:46;;;;;;;7.85;4.93;;;7.50;62.10;;;;;;5033876;28;20056;-76
2022/12/27 10:25:17;;;;;;;6.40;5.32;;;7.50;62.10;;;;;;5034064;28;20029;-76
2022/12/27 10:27:42;;;;;;;6.28;4.97;;;7.50;62.20;;;;;;5017015;28;20037;-76
2022/12/27 10:30:18;;;;;;;6.97;5.45;;;7.50;62.20;;;;;;5017607;28;20069;-76
2022/12/27 10:32:44;;;;;;;;;;;7.50;62.10;;;;;;5033643;28;20494;-75
2022/12/27 10:35:15;;;;;;;;;;;7.50;62.10;;;;;;5017524;28;19963;-76
2022/12/27 10:37:43;;;;;;;6.30;5.28;;;7.50;62.30;;;;;;5018763;28;19978;-76
2022/12/27 10:40:27;;;;;;;6.43;4.95;;;7.50;62.30;;;;;;4993369;28;20451;-75
2022/12/27 10:43:01;;;;;;;7.72;5.97;;;7.50;62.40;;;;;;5033505;28;20052;-76
2022/12/27 10:45:38;;;;;;;6.90;4.97;;;7.50;62.50;;;;;;5033614;28;20037;-76
2022/12/27 10:48:33;;;;;;;5.90;4.82;;;7.50;62.50;;;;;;5034603;28;20029;-76
2022/12/27 10:51:05;;;;;;;5.15;4.65;;;7.50;62.40;;;;;;5034873;28;20582;-75
2022/12/27 10:53:33;;;;;;;6.38;5.20;;;7.50;62.40;;;;;;5035929;28;20040;-75
2022/12/27 10:56:23;;;;;;;6.70;5.22;;;7.50;62.30;;;;;;5068360;28;20056;-76
2022/12/27 10:58:51;;;;;;;6.72;4.97;;;7.50;62.30;;;;;;5032550;28;20067;-76
2022/12/27 11:01:17;;;;;;;6.75;5.25;;;7.50;62.30;;;;;;5017662;28;20060;-75
2022/12/27 11:03:43;;;;;;;7.55;5.28;;;7.50;62.30;;;;;;5068575;28;20033;-75
2022/12/27 11:06:22;;;;;;;7.70;5.82;;;7.50;62.20;;;;;;5035157;28;20029;-76
2022/12/27 11:08:48;;;;;;;7.95;5.57;;;7.50;62.20;;;;;;5032728;28;20037;-74
2022/12/27 11:11:21;;;;;;;8.18;5.57;;;7.50;62.20;;;;;;5037001;28;20114;-84
2022/12/27 11:13:49;;;;;;;8.18;6.15;;;7.50;62.10;;;;;;5034840;28;20446;-75
2022/12/27 11:16:30;;;;;;;7.07;5.60;;;7.50;62.30;;;;;;5035819;28;20037;-75
2022/12/27 11:18:59;;;;;;;7.28;5.60;;;7.50;62.30;;;;;;5033966;28;20033;-75
2022/12/27 11:21:27;;;;;;;7.45;5.35;;;7.50;62.60;;;;;;5035907;28;20033;-76
2022/12/27 11:23:59;;;;;;;7.07;5.40;;;7.50;62.70;;;;;;5034609;28;20530;-76
2022/12/27 11:26:51;;;;;;;7.43;5.60;;;7.50;62.80;;;;;;5035704;28;20083;-77
2022/12/27 11:29:20;;;;;;;7.68;5.35;;;7.50;62.90;;;;;;5034709;28;20454;-79
2022/12/27 11:31:47;;;;;;;8.45;5.60;;;7.50;63.00;;;;;;5067930;28;20557;-77
2022/12/27 11:34:18;;;;;;;6.03;4.97;;;7.50;63.10;;;;;;5034859;28;20415;-77
2022/12/27 11:36:50;;;;;;;7.57;5.20;;;7.50;63.10;;;;;;5035901;28;20031;-78
2022/12/27 11:39:39;;;;;;;7.60;5.50;;;7.50;63.30;;;;;;5034385;28;20055;-76
2022/12/27 11:42:13;;;;;;;5.60;4.90;;;7.50;63.40;;;;;;5033820;28;20041;-77
2022/12/27 11:44:48;;;;;;;8.30;5.20;;;7.50;63.60;;;;;;5034845;28;20040;-76
2022/12/27 11:47:31;;;;;;;7.80;5.13;;;7.50;63.70;;;;;;5034492;28;20029;-77
2022/12/27 11:50:09;;;;;;;7.03;5.25;;;7.50;63.80;;;;;;5066259;28;20029;-76
2022/12/27 11:52:47;;;;;;;6.10;5.25;;;7.50;63.90;;;;;;5034963;28;20573;-76
2022/12/27 11:55:21;;;;;;;7.00;4.97;;;7.60;64.00;;;;;;5033695;28;20173;-76
2022/12/27 11:58:05;;;;;;;6.35;4.70;;;7.50;63.90;;;;;;5035517;28;20443;-77
2022/12/27 12:01:04;;;;;;;7.13;5.53;;;7.50;63.90;;;;;;5049292;28;20083;-77
2022/12/27 12:03:46;;;;;;;6.88;5.53;;;7.50;63.80;;;;;;5035314;28;20513;-76
2022/12/27 12:06:35;;;;;;;6.80;5.18;;;7.50;63.80;;;;;;5050109;28;20057;-77
2022/12/27 12:09:35;;;;;;;6.25;4.97;;;7.50;63.80;;;;;;5013923;28;20235;-76
2022/12/27 12:12:22;;;;;;;7.03;4.88;;;7.50;63.90;;;;;;5041690;28;20046;-76
2022/12/27 12:15:25;;;;;;;7.28;4.97;;;7.50;63.90;;;;;;5042718;28;20048;-76
2022/12/27 12:18:21;;;;;;;7.47;5.55;;;7.50;63.90;;;;;;5042810;28;20041;-77
2022/12/27 12:21:07;;;;;;;5.80;4.43;;;7.50;63.80;;;;;;5028795;28;20091;-76
2022/12/27 12:23:52;;;;;;;6.28;4.65;;;7.50;63.70;;;;;;5024751;28;20053;-76
2022/12/27 12:26:51;;;;;;;7.68;5.30;;;7.60;64.00;;;;;;5023470;28;20048;-77
2022/12/27 12:29:45;;;;;;;6.50;4.88;;;7.60;64.10;;;;;;5015569;28;20037;-77
2022/12/27 12:32:24;;;;;;;6.47;4.60;;;7.60;64.10;;;;;;5009427;28;20219;-78
2022/12/27 12:35:39;;;;;;;7.00;4.90;;;7.60;64.10;;;;;;5023044;28;20416;-77
2022/12/27 12:38:11;;;;;;;6.85;4.68;;;7.60;64.20;;;;;;4997965;28;20526;-77
2022/12/27 12:40:51;;;;;;;6.15;4.65;;;7.60;64.20;;;;;;5022552;28;20416;-76
2022/12/27 12:43:34;;;;;;;5.78;4.75;;;7.60;64.20;;;;;;5022684;28;20072;-76
2022/12/27 12:46:26;;;;;;;5.82;4.28;;;7.60;64.40;;;;;;5027373;28;20036;-76
2022/12/27 12:49:29;;;;;;;7.18;4.93;;;7.60;64.50;;;;;;5015627;28;20479;-76
2022/12/27 12:52:24;;;;;;;5.40;4.35;;;7.60;64.40;;;;;;5033206;28;20069;-75
2022/12/27 12:55:08;;;;;;;7.40;5.55;;;7.60;64.20;;;;;;5066684;28;20022;-75
2022/12/27 12:57:42;;;;;;;7.07;4.70;;;7.60;64.00;;;;;;5034580;28;20096;-76
2022/12/27 13:00:24;;;;;;;6.03;4.88;;;7.60;64.10;;;;;;5034575;28;20062;-77
2022/12/27 13:03:14;;;;;;;7.28;4.95;;;7.60;64.20;;;;;;5033529;28;20432;-79
2022/12/27 13:05:50;;;;;;;6.65;4.60;;;7.60;64.30;;;;;;5061387;28;20515;-78
2022/12/27 13:08:55;;;;;;;5.53;4.35;;;7.60;64.20;;;;;;5080337;28;20118;-77
2022/12/27 13:11:33;;;;;;;9.57;4.82;;;7.60;64.20;;;;;;5027414;28;20488;-79
2022/12/27 13:14:20;;;;;;;6.07;4.95;;;7.60;64.20;;;;;;5027322;28;20044;-78
2022/12/27 13:17:23;;;;;;;7.45;4.78;;;7.60;64.30;;;;;;4987935;28;20029;-78
2022/12/27 13:20:13;;;;;;;6.15;4.95;;;7.60;64.60;;;;;;5017167;28;20030;-79
2022/12/27 13:23:10;;;;;;;5.85;4.70;;;7.60;64.70;;;;;;4995272;28;20048;-78
2022/12/27 13:25:44;;;;;;;5.95;4.57;;;7.60;64.70;;;;;;5017195;28;20041;-79
2022/12/27 13:28:34;;;;;;;7.38;4.90;;;7.60;64.70;;;;;;5025617;28;20101;-78
2022/12/27 13:31:07;;;;;;;5.93;4.78;;;7.60;64.70;;;;;;5019600;28;20071;-79
2022/12/27 13:34:18;;;;;;;6.82;5.03;;;7.60;64.80;;;;;;5030545;28;20040;-78
2022/12/27 13:37:14;;;;;;;6.88;4.95;;;7.60;64.80;;;;;;4987355;28;20049;-78
2022/12/27 13:40:27;;;;;;;6.60;4.63;;;7.60;65.00;;;;;;4988794;28;20065;-77
2022/12/27 13:43:20;;;;;;;7.40;5.03;;;7.60;65.30;;;;;;5017994;28;20096;-80
2022/12/27 13:46:08;;;;;;;8.38;4.78;;;7.60;65.30;;;;;;5015623;28;20127;-77
2022/12/27 13:48:56;;;;;;;6.60;4.95;;;7.60;65.30;;;;;;5038464;28;20466;-77
2022/12/27 13:51:48;;;;;;;5.72;4.95;;;7.60;65.30;;;;;;5037892;28;20136;-77
2022/12/27 13:54:53;;;;;;;6.43;4.75;;;7.60;65.20;;;;;;5041336;28;20503;-77
2022/12/27 13:58:02;;;;;;;5.13;4.63;;;7.60;65.10;;;;;;5005572;28;20547;-78
2022/12/27 14:00:41;;;;;;;8.38;5.28;;;7.60;65.00;;;;;;4933645;29;20047;-76
2022/12/27 14:03:06;;;;;;;6.97;5.22;;;7.60;65.10;;;;;;4959683;28;20514;-78
2022/12/27 14:06:00;;;;;;;6.90;5.07;;;7.60;65.10;;;;;;4968720;28;20035;-76
2022/12/27 14:08:58;;;;;;;7.05;5.53;;;7.60;65.20;;;;;;4947609;28;20035;-77
2022/12/27 14:11:40;;;;;;;6.95;4.68;;;7.60;65.20;;;;;;4968503;28;20044;-77
2022/12/27 14:14:10;;;;;;;7.07;4.93;;;7.60;65.10;;;;;;4958919;28;20050;-77
2022/12/27 14:16:47;;;;;;;7.00;5.05;;;7.60;65.10;;;;;;4956210;28;20036;-78
2022/12/27 14:19:41;;;;;;;7.20;5.43;;;7.60;65.20;;;;;;4955027;28;20042;-79
2022/12/27 14:22:25;;;;;;;6.00;4.90;;;7.60;65.10;;;;;;4957787;28;20051;-79
2022/12/27 14:24:54;;;;;;;6.88;4.97;;;7.60;65.10;;;;;;4959395;28;20039;-79
2022/12/27 14:27:38;;;;;;;8.95;5.18;;;7.60;65.10;;;;;;4957469;28;20043;-80
2022/12/27 14:30:29;;;;;;;6.95;4.95;;;7.70;65.20;;;;;;4959617;28;20035;-80
2022/12/27 14:33:19;;;;;;;7.53;5.32;;;7.60;65.10;;;;;;4955688;28;20042;-79
2022/12/27 14:36:27;;;;;;;7.07;4.93;;;7.70;65.20;;;;;;4923734;28;20047;-80
2022/12/27 14:39:26;;;;;;;5.70;4.90;;;7.70;65.30;;;;;;4991692;28;20402;-79
2022/12/27 14:42:23;;;;;;;6.28;5.00;;;7.70;65.40;;;;;;4958587;28;20040;-81
2022/12/27 14:44:57;;;;;;;6.63;4.63;;;7.70;65.40;;;;;;4959547;28;20039;-80
2022/12/27 14:47:28;;;;;;;6.95;4.97;;;7.70;65.30;;;;;;4963486;28;20034;-80
2022/12/27 14:50:06;;;;;;;7.63;5.15;;;7.70;65.40;;;;;;4966277;28;20030;-80
2022/12/27 14:52:44;;;;;;;6.25;4.85;;;7.70;65.40;;;;;;4991113;28;20576;-79
2022/12/27 14:55:31;;;;;;;6.57;5.07;;;7.60;65.40;;;;;;5009091;28;20031;-80
2022/12/27 14:58:18;;;;;;;6.15;4.72;;;7.70;65.60;;;;;;4990766;28;20144;-79
2022/12/27 15:01:16;;;;;;;7.47;5.00;;;7.70;65.60;;;;;;4993870;28;20169;-78
2022/12/27 15:03:54;;;;;;;6.32;5.03;;;7.70;65.70;;;;;;4960344;28;20046;-81
2022/12/27 15:06:40;;;;;;;6.10;4.88;;;7.70;65.70;;;;;;4973124;28;20039;-80
2022/12/27 15:09:33;;;;;;;9.05;4.90;;;7.70;65.70;;;;;;4972784;28;20035;-82
2022/12/27 15:12:23;;;;;;;6.57;5.07;;;7.70;65.80;;;;;;4988177;28;21427;-83